Algarrobo Verde, Argentina
Current Conditions -  °F | °C
As of 5:00 PM on Monday 24 Nov 2014 (Local Time) from SAME Reporting Station
Few Clouds Few Clouds  
Wind Chill: 24°   Ceiling: Unl
Heat Index: 24°   Visibility: 6mi
Dew Point:   Wind: 8mph
Humidity: 25%   Direction: 50°NE
Pressure: 29.88"   Gusts: NA
Location:  31.76°S, 68.31°W
Report Text: SAME 242000Z 05007KT 9999 FEW045 24/03 Q1012
Loading
Personal Weather Stations






























Interactive Weather Map New forecast layout! Learn more

10-Day Weather Forecast

Advertisements
Track Severe Weather on mobile